sensor_id;sensor_type;location;lat;lon;timestamp;temperature;humidity
9816;DHT22;4947;44.526;11.360;2022-08-19T00:00:40;20.40;99.90
9816;DHT22;4947;44.526;11.360;2022-08-19T00:03:08;20.40;99.90
9816;DHT22;4947;44.526;11.360;2022-08-19T00:05:35;20.40;99.90
9816;DHT22;4947;44.526;11.360;2022-08-19T00:08:03;20.40;99.90
9816;DHT22;4947;44.526;11.360;2022-08-19T00:10:31;20.40;99.90
9816;DHT22;4947;44.526;11.360;2022-08-19T00:12:59;20.40;99.90
9816;DHT22;4947;44.526;11.360;2022-08-19T00:15:29;20.50;99.90
9816;DHT22;4947;44.526;11.360;2022-08-19T00:17:56;20.40;99.90
9816;DHT22;4947;44.526;11.360;2022-08-19T00:20:24;20.40;99.90
9816;DHT22;4947;44.526;11.360;2022-08-19T00:22:51;20.40;99.90
9816;DHT22;4947;44.526;11.360;2022-08-19T00:25:19;20.40;99.90
9816;DHT22;4947;44.526;11.360;2022-08-19T00:27:47;20.40;99.90
9816;DHT22;4947;44.526;11.360;2022-08-19T00:30:14;20.40;99.90
9816;DHT22;4947;44.526;11.360;2022-08-19T00:32:43;20.40;99.90
9816;DHT22;4947;44.526;11.360;2022-08-19T00:35:11;20.50;99.90
9816;DHT22;4947;44.526;11.360;2022-08-19T00:37:40;20.40;99.90
9816;DHT22;4947;44.526;11.360;2022-08-19T00:40:11;20.40;99.90
9816;DHT22;4947;44.526;11.360;2022-08-19T00:42:39;20.30;99.90
9816;DHT22;4947;44.526;11.360;2022-08-19T00:45:11;20.40;99.90
9816;DHT22;4947;44.526;11.360;2022-08-19T00:47:39;20.40;99.90
9816;DHT22;4947;44.526;11.360;2022-08-19T00:50:10;20.40;99.90
9816;DHT22;4947;44.526;11.360;2022-08-19T00:52:41;20.40;99.90
9816;DHT22;4947;44.526;11.360;2022-08-19T00:55:15;20.30;99.90
9816;DHT22;4947;44.526;11.360;2022-08-19T00:57:48;20.20;99.90
9816;DHT22;4947;44.526;11.360;2022-08-19T01:00:19;20.20;99.90
9816;DHT22;4947;44.526;11.360;2022-08-19T01:02:46;20.30;99.90
9816;DHT22;4947;44.526;11.360;2022-08-19T01:05:18;20.30;99.90
9816;DHT22;4947;44.526;11.360;2022-08-19T01:07:46;20.30;99.90
9816;DHT22;4947;44.526;11.360;2022-08-19T01:10:23;20.30;99.90
9816;DHT22;4947;44.526;11.360;2022-08-19T01:12:55;20.20;99.90
9816;DHT22;4947;44.526;11.360;2022-08-19T01:15:29;20.10;99.90
9816;DHT22;4947;44.526;11.360;2022-08-19T01:18:01;19.90;99.90
9816;DHT22;4947;44.526;11.360;2022-08-19T01:20:34;19.70;99.90
9816;DHT22;4947;44.526;11.360;2022-08-19T01:23:03;19.60;99.90
9816;DHT22;4947;44.526;11.360;2022-08-19T01:25:34;19.50;99.90
9816;DHT22;4947;44.526;11.360;2022-08-19T01:28:03;19.50;99.90
9816;DHT22;4947;44.526;11.360;2022-08-19T01:30:32;19.40;99.90
9816;DHT22;4947;44.526;11.360;2022-08-19T01:33:01;19.40;99.90
9816;DHT22;4947;44.526;11.360;2022-08-19T01:35:31;19.40;99.90
9816;DHT22;4947;44.526;11.360;2022-08-19T01:38:04;19.30;99.90
9816;DHT22;4947;44.526;11.360;2022-08-19T01:40:34;19.30;99.90
9816;DHT22;4947;44.526;11.360;2022-08-19T01:43:03;19.20;99.90
9816;DHT22;4947;44.526;11.360;2022-08-19T01:45:34;19.20;99.90
9816;DHT22;4947;44.526;11.360;2022-08-19T01:48:02;19.20;99.90
9816;DHT22;4947;44.526;11.360;2022-08-19T01:50:31;19.20;99.90
9816;DHT22;4947;44.526;11.360;2022-08-19T01:53:00;19.10;99.90
9816;DHT22;4947;44.526;11.360;2022-08-19T01:55:35;19.10;99.90
9816;DHT22;4947;44.526;11.360;2022-08-19T01:58:05;19.10;99.90
9816;DHT22;4947;44.526;11.360;2022-08-19T02:00:34;19.00;99.90
9816;DHT22;4947;44.526;11.360;2022-08-19T02:03:02;19.10;99.90
9816;DHT22;4947;44.526;11.360;2022-08-19T02:05:29;19.10;99.90
9816;DHT22;4947;44.526;11.360;2022-08-19T02:07:57;19.10;99.90
9816;DHT22;4947;44.526;11.360;2022-08-19T02:10:24;19.10;99.90
9816;DHT22;4947;44.526;11.360;2022-08-19T02:12:53;19.20;99.90
9816;DHT22;4947;44.526;11.360;2022-08-19T02:15:21;19.20;99.90
9816;DHT22;4947;44.526;11.360;2022-08-19T02:17:49;19.20;99.90
9816;DHT22;4947;44.526;11.360;2022-08-19T02:20:16;19.20;99.90
9816;DHT22;4947;44.526;11.360;2022-08-19T02:22:47;19.20;99.90
9816;DHT22;4947;44.526;11.360;2022-08-19T02:25:15;19.20;99.90
9816;DHT22;4947;44.526;11.360;2022-08-19T02:27:43;19.20;99.90
9816;DHT22;4947;44.526;11.360;2022-08-19T02:30:16;19.20;99.90
9816;DHT22;4947;44.526;11.360;2022-08-19T02:32:44;19.20;99.90
9816;DHT22;4947;44.526;11.360;2022-08-19T02:35:13;19.30;99.90
9816;DHT22;4947;44.526;11.360;2022-08-19T02:37:40;19.30;99.90
9816;DHT22;4947;44.526;11.360;2022-08-19T02:40:25;19.30;99.90
9816;DHT22;4947;44.526;11.360;2022-08-19T02:42:52;19.30;99.90
9816;DHT22;4947;44.526;11.360;2022-08-19T02:45:21;19.40;99.90
9816;DHT22;4947;44.526;11.360;2022-08-19T02:47:49;19.50;99.90
9816;DHT22;4947;44.526;11.360;2022-08-19T02:50:17;19.60;99.90
9816;DHT22;4947;44.526;11.360;2022-08-19T02:52:45;19.60;99.90
9816;DHT22;4947;44.526;11.360;2022-08-19T02:55:12;19.60;99.90
9816;DHT22;4947;44.526;11.360;2022-08-19T02:57:40;19.60;99.90
9816;DHT22;4947;44.526;11.360;2022-08-19T03:00:09;19.60;99.90
9816;DHT22;4947;44.526;11.360;2022-08-19T03:02:40;19.60;99.90
9816;DHT22;4947;44.526;11.360;2022-08-19T03:05:09;19.60;99.90
9816;DHT22;4947;44.526;11.360;2022-08-19T03:07:37;19.70;99.90
9816;DHT22;4947;44.526;11.360;2022-08-19T03:10:06;19.70;99.90
9816;DHT22;4947;44.526;11.360;2022-08-19T03:12:36;19.70;99.90
9816;DHT22;4947;44.526;11.360;2022-08-19T03:15:06;19.70;99.90
9816;DHT22;4947;44.526;11.360;2022-08-19T03:17:34;19.80;99.90
9816;DHT22;4947;44.526;11.360;2022-08-19T03:20:05;19.80;99.90
9816;DHT22;4947;44.526;11.360;2022-08-19T03:22:33;19.80;99.90
9816;DHT22;4947;44.526;11.360;2022-08-19T03:25:00;19.80;99.90
9816;DHT22;4947;44.526;11.360;2022-08-19T03:27:27;19.80;99.90
9816;DHT22;4947;44.526;11.360;2022-08-19T03:29:55;19.80;99.90
9816;DHT22;4947;44.526;11.360;2022-08-19T03:32:23;19.80;99.90
9816;DHT22;4947;44.526;11.360;2022-08-19T03:34:51;19.80;99.90
9816;DHT22;4947;44.526;11.360;2022-08-19T03:37:20;19.80;99.90
9816;DHT22;4947;44.526;11.360;2022-08-19T03:39:47;19.90;99.90
9816;DHT22;4947;44.526;11.360;2022-08-19T03:42:16;19.90;99.90
9816;DHT22;4947;44.526;11.360;2022-08-19T03:44:43;19.90;99.90
9816;DHT22;4947;44.526;11.360;2022-08-19T03:47:12;19.80;99.90
9816;DHT22;4947;44.526;11.360;2022-08-19T03:49:42;19.80;99.90
9816;DHT22;4947;44.526;11.360;2022-08-19T03:52:10;19.80;99.90
9816;DHT22;4947;44.526;11.360;2022-08-19T03:54:39;19.80;99.90
9816;DHT22;4947;44.526;11.360;2022-08-19T03:57:10;19.80;99.90
9816;DHT22;4947;44.526;11.360;2022-08-19T03:59:38;19.90;99.90
9816;DHT22;4947;44.526;11.360;2022-08-19T04:02:09;19.90;99.90
9816;DHT22;4947;44.526;11.360;2022-08-19T04:04:38;19.90;99.90
9816;DHT22;4947;44.526;11.360;2022-08-19T04:07:09;19.90;99.90
9816;DHT22;4947;44.526;11.360;2022-08-19T04:09:39;20.00;99.90
9816;DHT22;4947;44.526;11.360;2022-08-19T04:12:07;19.90;99.90
9816;DHT22;4947;44.526;11.360;2022-08-19T04:14:35;20.00;99.90
9816;DHT22;4947;44.526;11.360;2022-08-19T04:17:03;20.00;99.90
9816;DHT22;4947;44.526;11.360;2022-08-19T04:19:32;20.00;99.90
9816;DHT22;4947;44.526;11.360;2022-08-19T04:21:59;20.00;99.90
9816;DHT22;4947;44.526;11.360;2022-08-19T04:24:28;20.00;99.90
9816;DHT22;4947;44.526;11.360;2022-08-19T04:26:59;20.00;99.90
9816;DHT22;4947;44.526;11.360;2022-08-19T04:29:27;20.10;99.90
9816;DHT22;4947;44.526;11.360;2022-08-19T04:31:59;20.10;99.90
9816;DHT22;4947;44.526;11.360;2022-08-19T04:34:28;20.10;99.90
9816;DHT22;4947;44.526;11.360;2022-08-19T04:36:57;20.10;99.90
9816;DHT22;4947;44.526;11.360;2022-08-19T04:39:28;20.10;99.90
9816;DHT22;4947;44.526;11.360;2022-08-19T04:42:11;20.10;99.90
9816;DHT22;4947;44.526;11.360;2022-08-19T04:44:56;20.20;99.90
9816;DHT22;4947;44.526;11.360;2022-08-19T04:47:24;20.20;99.90
9816;DHT22;4947;44.526;11.360;2022-08-19T04:49:51;20.20;99.90
9816;DHT22;4947;44.526;11.360;2022-08-19T04:52:18;20.30;99.90
9816;DHT22;4947;44.526;11.360;2022-08-19T04:54:46;20.30;99.90
9816;DHT22;4947;44.526;11.360;2022-08-19T04:57:15;20.30;99.90
9816;DHT22;4947;44.526;11.360;2022-08-19T04:59:42;20.30;99.90
9816;DHT22;4947;44.526;11.360;2022-08-19T05:02:10;20.30;99.90
9816;DHT22;4947;44.526;11.360;2022-08-19T05:04:38;20.30;99.90
9816;DHT22;4947;44.526;11.360;2022-08-19T05:07:06;20.30;99.90
9816;DHT22;4947;44.526;11.360;2022-08-19T05:09:34;20.30;99.90
9816;DHT22;4947;44.526;11.360;2022-08-19T05:12:02;20.40;99.90
9816;DHT22;4947;44.526;11.360;2022-08-19T05:14:31;20.40;99.90
9816;DHT22;4947;44.526;11.360;2022-08-19T05:17:00;20.40;99.90
9816;DHT22;4947;44.526;11.360;2022-08-19T05:19:28;20.40;99.90
9816;DHT22;4947;44.526;11.360;2022-08-19T05:22:12;20.40;99.90
9816;DHT22;4947;44.526;11.360;2022-08-19T05:24:56;20.40;99.90
9816;DHT22;4947;44.526;11.360;2022-08-19T05:27:27;20.40;99.90
9816;DHT22;4947;44.526;11.360;2022-08-19T05:29:56;20.40;99.90
9816;DHT22;4947;44.526;11.360;2022-08-19T05:32:24;20.40;99.90
9816;DHT22;4947;44.526;11.360;2022-08-19T05:34:51;20.50;99.90
9816;DHT22;4947;44.526;11.360;2022-08-19T05:37:19;20.60;99.90
9816;DHT22;4947;44.526;11.360;2022-08-19T05:39:47;20.60;99.90
9816;DHT22;4947;44.526;11.360;2022-08-19T05:42:14;20.70;99.90
9816;DHT22;4947;44.526;11.360;2022-08-19T05:44:43;20.70;99.90
9816;DHT22;4947;44.526;11.360;2022-08-19T05:47:14;20.40;99.90
9816;DHT22;4947;44.526;11.360;2022-08-19T05:49:43;20.20;99.90
9816;DHT22;4947;44.526;11.360;2022-08-19T05:52:13;20.10;99.90
9816;DHT22;4947;44.526;11.360;2022-08-19T05:54:41;19.90;99.90
9816;DHT22;4947;44.526;11.360;2022-08-19T05:57:10;19.60;99.90
9816;DHT22;4947;44.526;11.360;2022-08-19T05:59:38;19.50;99.90
9816;DHT22;4947;44.526;11.360;2022-08-19T06:02:06;19.30;99.90
9816;DHT22;4947;44.526;11.360;2022-08-19T06:04:35;19.20;99.90
9816;DHT22;4947;44.526;11.360;2022-08-19T06:07:03;18.80;99.90
9816;DHT22;4947;44.526;11.360;2022-08-19T06:09:32;18.40;99.90
9816;DHT22;4947;44.526;11.360;2022-08-19T06:12:02;18.10;99.90
9816;DHT22;4947;44.526;11.360;2022-08-19T06:14:33;17.90;99.90
9816;DHT22;4947;44.526;11.360;2022-08-19T06:17:01;17.70;99.90
9816;DHT22;4947;44.526;11.360;2022-08-19T06:19:30;17.60;99.90
9816;DHT22;4947;44.526;11.360;2022-08-19T06:22:00;17.60;99.90
9816;DHT22;4947;44.526;11.360;2022-08-19T06:24:29;17.60;99.90
9816;DHT22;4947;44.526;11.360;2022-08-19T06:26:58;17.40;99.90
9816;DHT22;4947;44.526;11.360;2022-08-19T06:29:27;17.40;99.90
9816;DHT22;4947;44.526;11.360;2022-08-19T06:31:56;17.30;99.90
9816;DHT22;4947;44.526;11.360;2022-08-19T06:34:25;17.20;99.90
9816;DHT22;4947;44.526;11.360;2022-08-19T06:36:54;17.30;99.90
9816;DHT22;4947;44.526;11.360;2022-08-19T06:39:25;17.40;99.90
9816;DHT22;4947;44.526;11.360;2022-08-19T06:41:57;17.40;99.90
9816;DHT22;4947;44.526;11.360;2022-08-19T06:44:27;17.40;99.90
9816;DHT22;4947;44.526;11.360;2022-08-19T06:46:55;17.40;99.90
9816;DHT22;4947;44.526;11.360;2022-08-19T06:49:23;17.40;99.90
9816;DHT22;4947;44.526;11.360;2022-08-19T06:51:53;17.40;99.90
9816;DHT22;4947;44.526;11.360;2022-08-19T06:54:24;17.50;99.90
9816;DHT22;4947;44.526;11.360;2022-08-19T06:56:52;17.50;99.90
9816;DHT22;4947;44.526;11.360;2022-08-19T06:59:22;17.60;99.90
9816;DHT22;4947;44.526;11.360;2022-08-19T07:01:55;17.80;99.90
9816;DHT22;4947;44.526;11.360;2022-08-19T07:04:25;18.00;99.90
9816;DHT22;4947;44.526;11.360;2022-08-19T07:06:57;18.10;99.90
9816;DHT22;4947;44.526;11.360;2022-08-19T07:09:26;18.30;99.90
9816;DHT22;4947;44.526;11.360;2022-08-19T07:11:54;18.30;99.90
9816;DHT22;4947;44.526;11.360;2022-08-19T07:14:24;18.40;99.90
9816;DHT22;4947;44.526;11.360;2022-08-19T07:16:54;18.50;99.90
9816;DHT22;4947;44.526;11.360;2022-08-19T07:19:25;18.60;99.90
9816;DHT22;4947;44.526;11.360;2022-08-19T07:21:54;18.70;99.90
9816;DHT22;4947;44.526;11.360;2022-08-19T07:24:24;18.70;99.90
9816;DHT22;4947;44.526;11.360;2022-08-19T07:26:56;18.70;99.90
9816;DHT22;4947;44.526;11.360;2022-08-19T07:29:26;18.80;99.90
9816;DHT22;4947;44.526;11.360;2022-08-19T07:31:55;18.70;99.90
9816;DHT22;4947;44.526;11.360;2022-08-19T07:34:25;18.70;99.90
9816;DHT22;4947;44.526;11.360;2022-08-19T07:36:53;18.70;99.90
9816;DHT22;4947;44.526;11.360;2022-08-19T07:39:23;18.70;99.90
9816;DHT22;4947;44.526;11.360;2022-08-19T07:41:52;18.60;99.90
9816;DHT22;4947;44.526;11.360;2022-08-19T07:44:20;18.60;99.90
9816;DHT22;4947;44.526;11.360;2022-08-19T07:46:50;18.50;99.90
9816;DHT22;4947;44.526;11.360;2022-08-19T07:49:21;18.50;99.90
9816;DHT22;4947;44.526;11.360;2022-08-19T07:51:51;18.50;99.90
9816;DHT22;4947;44.526;11.360;2022-08-19T07:54:20;18.50;99.90
9816;DHT22;4947;44.526;11.360;2022-08-19T07:56:48;18.60;99.90
9816;DHT22;4947;44.526;11.360;2022-08-19T07:59:18;18.60;99.90
9816;DHT22;4947;44.526;11.360;2022-08-19T08:01:46;18.70;99.90
9816;DHT22;4947;44.526;11.360;2022-08-19T08:04:14;18.90;99.90
9816;DHT22;4947;44.526;11.360;2022-08-19T08:06:59;18.90;99.90
9816;DHT22;4947;44.526;11.360;2022-08-19T08:09:44;19.00;99.90
9816;DHT22;4947;44.526;11.360;2022-08-19T08:12:14;19.10;99.90
9816;DHT22;4947;44.526;11.360;2022-08-19T08:14:51;19.30;99.90
9816;DHT22;4947;44.526;11.360;2022-08-19T08:17:22;19.60;99.90
9816;DHT22;4947;44.526;11.360;2022-08-19T08:19:50;20.00;99.90
9816;DHT22;4947;44.526;11.360;2022-08-19T08:22:19;20.10;99.90
9816;DHT22;4947;44.526;11.360;2022-08-19T08:25:07;20.10;99.90
9816;DHT22;4947;44.526;11.360;2022-08-19T08:27:35;20.20;99.90
9816;DHT22;4947;44.526;11.360;2022-08-19T08:30:12;20.40;99.90
9816;DHT22;4947;44.526;11.360;2022-08-19T08:32:41;20.80;99.90
9816;DHT22;4947;44.526;11.360;2022-08-19T08:35:11;20.80;99.90
9816;DHT22;4947;44.526;11.360;2022-08-19T08:37:40;20.80;99.90
9816;DHT22;4947;44.526;11.360;2022-08-19T08:40:16;20.80;99.90
9816;DHT22;4947;44.526;11.360;2022-08-19T08:42:48;21.10;99.90
9816;DHT22;4947;44.526;11.360;2022-08-19T08:45:18;21.60;99.90
9816;DHT22;4947;44.526;11.360;2022-08-19T08:47:48;22.60;99.90
9816;DHT22;4947;44.526;11.360;2022-08-19T08:50:21;23.10;99.90
9816;DHT22;4947;44.526;11.360;2022-08-19T08:52:54;23.70;99.90
9816;DHT22;4947;44.526;11.360;2022-08-19T08:55:24;24.40;99.90
9816;DHT22;4947;44.526;11.360;2022-08-19T08:57:55;24.70;99.90
9816;DHT22;4947;44.526;11.360;2022-08-19T09:00:29;24.70;99.90
9816;DHT22;4947;44.526;11.360;2022-08-19T09:02:58;24.30;99.90
9816;DHT22;4947;44.526;11.360;2022-08-19T09:05:32;24.20;99.90
9816;DHT22;4947;44.526;11.360;2022-08-19T09:08:06;24.40;99.90
9816;DHT22;4947;44.526;11.360;2022-08-19T09:10:44;24.40;99.90
9816;DHT22;4947;44.526;11.360;2022-08-19T09:13:25;24.50;99.90
9816;DHT22;4947;44.526;11.360;2022-08-19T09:16:02;25.10;99.90
9816;DHT22;4947;44.526;11.360;2022-08-19T09:18:39;25.60;99.90
9816;DHT22;4947;44.526;11.360;2022-08-19T09:21:07;26.00;99.90
9816;DHT22;4947;44.526;11.360;2022-08-19T09:23:35;25.90;99.90
9816;DHT22;4947;44.526;11.360;2022-08-19T09:26:07;25.20;99.90
9816;DHT22;4947;44.526;11.360;2022-08-19T09:28:35;24.90;99.90
9816;DHT22;4947;44.526;11.360;2022-08-19T09:31:05;24.90;99.90
9816;DHT22;4947;44.526;11.360;2022-08-19T09:33:33;25.20;99.90
9816;DHT22;4947;44.526;11.360;2022-08-19T09:36:05;25.00;99.90
9816;DHT22;4947;44.526;11.360;2022-08-19T09:38:34;25.00;99.90
9816;DHT22;4947;44.526;11.360;2022-08-19T09:41:05;25.00;99.90
9816;DHT22;4947;44.526;11.360;2022-08-19T09:43:34;25.50;99.90
9816;DHT22;4947;44.526;11.360;2022-08-19T09:46:02;26.10;99.90
9816;DHT22;4947;44.526;11.360;2022-08-19T09:48:32;26.20;99.90
9816;DHT22;4947;44.526;11.360;2022-08-19T09:51:04;26.20;99.90
9816;DHT22;4947;44.526;11.360;2022-08-19T09:53:33;25.80;99.10
9816;DHT22;4947;44.526;11.360;2022-08-19T09:56:03;25.40;99.90
9816;DHT22;4947;44.526;11.360;2022-08-19T09:58:31;25.60;99.90
9816;DHT22;4947;44.526;11.360;2022-08-19T10:01:00;25.30;99.90
9816;DHT22;4947;44.526;11.360;2022-08-19T10:03:29;25.10;99.90
9816;DHT22;4947;44.526;11.360;2022-08-19T10:06:05;25.10;99.90
9816;DHT22;4947;44.526;11.360;2022-08-19T10:08:37;25.00;99.90
9816;DHT22;4947;44.526;11.360;2022-08-19T10:11:05;24.90;99.90
9816;DHT22;4947;44.526;11.360;2022-08-19T10:13:33;24.60;99.90
9816;DHT22;4947;44.526;11.360;2022-08-19T10:16:05;24.40;99.90
9816;DHT22;4947;44.526;11.360;2022-08-19T10:18:33;24.20;99.90
9816;DHT22;4947;44.526;11.360;2022-08-19T10:21:06;24.40;99.90
9816;DHT22;4947;44.526;11.360;2022-08-19T10:23:35;24.50;99.90
9816;DHT22;4947;44.526;11.360;2022-08-19T10:26:04;24.30;99.90
9816;DHT22;4947;44.526;11.360;2022-08-19T10:28:34;24.20;99.90
9816;DHT22;4947;44.526;11.360;2022-08-19T10:31:06;24.30;99.90
9816;DHT22;4947;44.526;11.360;2022-08-19T10:33:34;24.30;99.90
9816;DHT22;4947;44.526;11.360;2022-08-19T10:36:07;24.40;99.90
9816;DHT22;4947;44.526;11.360;2022-08-19T10:38:37;24.50;99.90
9816;DHT22;4947;44.526;11.360;2022-08-19T10:41:08;24.60;99.90
9816;DHT22;4947;44.526;11.360;2022-08-19T10:43:36;24.70;99.90
9816;DHT22;4947;44.526;11.360;2022-08-19T10:46:10;24.90;99.90
9816;DHT22;4947;44.526;11.360;2022-08-19T10:48:39;24.80;99.90
9816;DHT22;4947;44.526;11.360;2022-08-19T10:51:08;24.50;99.90
9816;DHT22;4947;44.526;11.360;2022-08-19T10:53:53;24.50;99.90
9816;DHT22;4947;44.526;11.360;2022-08-19T10:56:21;24.50;99.90
9816;DHT22;4947;44.526;11.360;2022-08-19T10:59:05;24.50;99.90
9816;DHT22;4947;44.526;11.360;2022-08-19T11:01:34;24.50;99.90
9816;DHT22;4947;44.526;11.360;2022-08-19T11:04:03;24.50;99.90
9816;DHT22;4947;44.526;11.360;2022-08-19T11:06:35;24.50;99.90
9816;DHT22;4947;44.526;11.360;2022-08-19T11:09:04;24.50;99.90
9816;DHT22;4947;44.526;11.360;2022-08-19T11:11:33;24.60;99.90
9816;DHT22;4947;44.526;11.360;2022-08-19T11:14:06;24.50;99.90
9816;DHT22;4947;44.526;11.360;2022-08-19T11:16:37;24.40;99.90
9816;DHT22;4947;44.526;11.360;2022-08-19T11:19:07;24.40;99.90
9816;DHT22;4947;44.526;11.360;2022-08-19T11:21:39;24.50;99.90
9816;DHT22;4947;44.526;11.360;2022-08-19T11:24:09;24.50;99.70
9816;DHT22;4947;44.526;11.360;2022-08-19T11:26:38;24.50;99.90
9816;DHT22;4947;44.526;11.360;2022-08-19T11:29:07;24.50;99.80
9816;DHT22;4947;44.526;11.360;2022-08-19T11:31:37;24.70;99.30
9816;DHT22;4947;44.526;11.360;2022-08-19T11:34:07;24.70;98.70
9816;DHT22;4947;44.526;11.360;2022-08-19T11:36:39;24.80;98.90
9816;DHT22;4947;44.526;11.360;2022-08-19T11:39:09;24.90;99.40
9816;DHT22;4947;44.526;11.360;2022-08-19T11:41:37;25.00;98.00
9816;DHT22;4947;44.526;11.360;2022-08-19T11:44:06;25.20;96.10
9816;DHT22;4947;44.526;11.360;2022-08-19T11:46:34;25.20;97.50
9816;DHT22;4947;44.526;11.360;2022-08-19T11:49:04;25.20;98.80
9816;DHT22;4947;44.526;11.360;2022-08-19T11:51:35;25.30;98.80
9816;DHT22;4947;44.526;11.360;2022-08-19T11:54:05;25.30;97.30
9816;DHT22;4947;44.526;11.360;2022-08-19T11:56:37;25.30;96.70
9816;DHT22;4947;44.526;11.360;2022-08-19T11:59:05;25.20;96.80
9816;DHT22;4947;44.526;11.360;2022-08-19T12:01:33;25.30;97.50
9816;DHT22;4947;44.526;11.360;2022-08-19T12:04:01;25.20;95.90
9816;DHT22;4947;44.526;11.360;2022-08-19T12:06:31;25.00;98.30
9816;DHT22;4947;44.526;11.360;2022-08-19T12:09:02;24.90;98.00
9816;DHT22;4947;44.526;11.360;2022-08-19T12:11:31;24.90;99.10
9816;DHT22;4947;44.526;11.360;2022-08-19T12:13:59;25.00;97.60
9816;DHT22;4947;44.526;11.360;2022-08-19T12:16:28;25.00;98.60
9816;DHT22;4947;44.526;11.360;2022-08-19T12:18:56;25.00;97.40
9816;DHT22;4947;44.526;11.360;2022-08-19T12:21:29;25.00;97.40
9816;DHT22;4947;44.526;11.360;2022-08-19T12:24:02;25.20;98.50
9816;DHT22;4947;44.526;11.360;2022-08-19T12:26:31;25.20;96.50
9816;DHT22;4947;44.526;11.360;2022-08-19T12:28:59;25.30;95.70
9816;DHT22;4947;44.526;11.360;2022-08-19T12:31:27;25.50;95.10
9816;DHT22;4947;44.526;11.360;2022-08-19T12:33:56;25.50;95.10
9816;DHT22;4947;44.526;11.360;2022-08-19T12:36:24;25.60;96.20
9816;DHT22;4947;44.526;11.360;2022-08-19T12:38:52;25.70;94.40
9816;DHT22;4947;44.526;11.360;2022-08-19T12:41:23;25.80;94.50
9816;DHT22;4947;44.526;11.360;2022-08-19T12:43:52;25.90;93.90
9816;DHT22;4947;44.526;11.360;2022-08-19T12:46:20;25.90;94.00
9816;DHT22;4947;44.526;11.360;2022-08-19T12:48:47;25.90;93.80
9816;DHT22;4947;44.526;11.360;2022-08-19T12:51:18;25.80;94.70
9816;DHT22;4947;44.526;11.360;2022-08-19T12:53:46;25.80;94.10
9816;DHT22;4947;44.526;11.360;2022-08-19T12:56:14;25.70;92.00
9816;DHT22;4947;44.526;11.360;2022-08-19T12:58:42;25.70;91.80
9816;DHT22;4947;44.526;11.360;2022-08-19T13:01:13;25.70;92.00
9816;DHT22;4947;44.526;11.360;2022-08-19T13:03:41;25.70;91.50
9816;DHT22;4947;44.526;11.360;2022-08-19T13:06:09;25.80;91.00
9816;DHT22;4947;44.526;11.360;2022-08-19T13:08:37;25.70;91.40
9816;DHT22;4947;44.526;11.360;2022-08-19T13:11:11;25.60;90.10
9816;DHT22;4947;44.526;11.360;2022-08-19T13:13:40;25.60;92.30
9816;DHT22;4947;44.526;11.360;2022-08-19T13:16:08;25.70;91.80
9816;DHT22;4947;44.526;11.360;2022-08-19T13:18:39;25.80;91.20
9816;DHT22;4947;44.526;11.360;2022-08-19T13:21:09;25.90;90.40
9816;DHT22;4947;44.526;11.360;2022-08-19T13:23:37;25.90;87.70
9816;DHT22;4947;44.526;11.360;2022-08-19T13:26:06;26.00;88.10
9816;DHT22;4947;44.526;11.360;2022-08-19T13:28:35;26.20;92.20
9816;DHT22;4947;44.526;11.360;2022-08-19T13:31:21;26.20;91.30
9816;DHT22;4947;44.526;11.360;2022-08-19T13:34:07;26.10;90.90
9816;DHT22;4947;44.526;11.360;2022-08-19T13:36:36;25.80;91.00
9816;DHT22;4947;44.526;11.360;2022-08-19T13:39:05;25.80;92.30
9816;DHT22;4947;44.526;11.360;2022-08-19T13:41:33;25.70;92.90
9816;DHT22;4947;44.526;11.360;2022-08-19T13:44:01;25.70;92.80
9816;DHT22;4947;44.526;11.360;2022-08-19T13:46:29;25.50;92.60
9816;DHT22;4947;44.526;11.360;2022-08-19T13:48:56;25.30;93.90
9816;DHT22;4947;44.526;11.360;2022-08-19T13:51:25;25.20;93.40
9816;DHT22;4947;44.526;11.360;2022-08-19T13:53:53;25.20;92.80
9816;DHT22;4947;44.526;11.360;2022-08-19T13:56:20;25.20;93.70
9816;DHT22;4947;44.526;11.360;2022-08-19T13:58:48;25.30;93.70
9816;DHT22;4947;44.526;11.360;2022-08-19T14:01:19;25.30;94.60
9816;DHT22;4947;44.526;11.360;2022-08-19T14:03:48;25.30;94.50
9816;DHT22;4947;44.526;11.360;2022-08-19T14:06:16;25.30;95.90
9816;DHT22;4947;44.526;11.360;2022-08-19T14:08:45;25.40;98.00
9816;DHT22;4947;44.526;11.360;2022-08-19T14:11:13;25.30;96.40
9816;DHT22;4947;44.526;11.360;2022-08-19T14:13:40;25.20;98.50
9816;DHT22;4947;44.526;11.360;2022-08-19T14:16:09;25.10;99.00
9816;DHT22;4947;44.526;11.360;2022-08-19T14:18:37;25.10;97.40
9816;DHT22;4947;44.526;11.360;2022-08-19T14:21:06;25.10;97.00
9816;DHT22;4947;44.526;11.360;2022-08-19T14:23:34;25.00;97.40
9816;DHT22;4947;44.526;11.360;2022-08-19T14:26:08;25.00;97.40
9816;DHT22;4947;44.526;11.360;2022-08-19T14:28:36;25.10;97.50
9816;DHT22;4947;44.526;11.360;2022-08-19T14:31:05;25.10;97.40
9816;DHT22;4947;44.526;11.360;2022-08-19T14:33:32;25.00;98.50
9816;DHT22;4947;44.526;11.360;2022-08-19T14:35:59;24.90;97.10
9816;DHT22;4947;44.526;11.360;2022-08-19T14:38:27;24.80;97.00
9816;DHT22;4947;44.526;11.360;2022-08-19T14:41:11;24.90;97.70
9816;DHT22;4947;44.526;11.360;2022-08-19T14:43:39;25.00;98.00
9816;DHT22;4947;44.526;11.360;2022-08-19T14:46:07;24.90;97.00
9816;DHT22;4947;44.526;11.360;2022-08-19T14:48:35;24.90;97.10
9816;DHT22;4947;44.526;11.360;2022-08-19T14:51:04;24.90;97.40
9816;DHT22;4947;44.526;11.360;2022-08-19T14:53:32;24.90;97.20
9816;DHT22;4947;44.526;11.360;2022-08-19T14:56:01;24.90;96.30
9816;DHT22;4947;44.526;11.360;2022-08-19T14:58:30;24.90;96.80
9816;DHT22;4947;44.526;11.360;2022-08-19T15:00:58;24.90;97.40
9816;DHT22;4947;44.526;11.360;2022-08-19T15:03:26;24.90;96.80
9816;DHT22;4947;44.526;11.360;2022-08-19T15:05:54;24.90;97.20
9816;DHT22;4947;44.526;11.360;2022-08-19T15:08:23;24.90;96.40
9816;DHT22;4947;44.526;11.360;2022-08-19T15:10:50;24.80;96.00
9816;DHT22;4947;44.526;11.360;2022-08-19T15:13:18;24.70;95.70
9816;DHT22;4947;44.526;11.360;2022-08-19T15:15:47;24.60;94.50
9816;DHT22;4947;44.526;11.360;2022-08-19T15:18:14;24.50;94.10
9816;DHT22;4947;44.526;11.360;2022-08-19T15:20:42;24.50;95.40
9816;DHT22;4947;44.526;11.360;2022-08-19T15:23:09;24.50;95.60
9816;DHT22;4947;44.526;11.360;2022-08-19T15:25:37;24.40;96.60
9816;DHT22;4947;44.526;11.360;2022-08-19T15:28:06;24.40;94.60
9816;DHT22;4947;44.526;11.360;2022-08-19T15:30:37;24.50;94.50
9816;DHT22;4947;44.526;11.360;2022-08-19T15:33:07;24.60;94.60
9816;DHT22;4947;44.526;11.360;2022-08-19T15:35:35;24.80;95.00
9816;DHT22;4947;44.526;11.360;2022-08-19T15:38:02;24.90;96.60
9816;DHT22;4947;44.526;11.360;2022-08-19T15:40:31;25.00;94.80
9816;DHT22;4947;44.526;11.360;2022-08-19T15:42:59;25.10;95.40
9816;DHT22;4947;44.526;11.360;2022-08-19T15:45:27;25.00;95.10
9816;DHT22;4947;44.526;11.360;2022-08-19T15:47:57;24.90;94.30
9816;DHT22;4947;44.526;11.360;2022-08-19T15:50:27;24.90;96.00
9816;DHT22;4947;44.526;11.360;2022-08-19T15:52:58;24.80;94.30
9816;DHT22;4947;44.526;11.360;2022-08-19T15:55:28;24.70;95.90
9816;DHT22;4947;44.526;11.360;2022-08-19T15:57:57;24.70;96.40
9816;DHT22;4947;44.526;11.360;2022-08-19T16:00:41;24.70;96.20